Time;durP1;ratioP1;P1;durP2;ratioP2;P2;SDS_P1;SDS_P2;PMS_P1;PMS_P2;Temp;Humidity;BMP_temperature;BMP_pressure;BME280_temperature;BME280_humidity;BME280_pressure;Samples;Min_cycle;Max_cycle;Signal;HPM_P1;HPM_P2
2022/07/05 00:00:04;;;;;;;20.25;14.13;;;;;;;;;;5044961;28;20032;-74
2022/07/05 00:02:30;;;;;;;19.08;14.15;;;;;;;;;;5042636;28;20040;-74
2022/07/05 00:04:56;;;;;;;18.55;13.48;;;;;;;;;;5047305;28;20033;-74
2022/07/05 00:07:22;;;;;;;23.80;13.73;;;;;;;;;;5045657;28;20035;-73
2022/07/05 00:09:50;;;;;;;19.95;13.45;;;;;;;;;;5041303;28;20043;-72
2022/07/05 00:12:16;;;;;;;28.05;13.48;;;;;;;;;;5045074;28;20136;-73
2022/07/05 00:14:43;;;;;;;18.52;13.32;;;;;;;;;;5040869;28;20033;-71
2022/07/05 00:17:09;;;;;;;16.80;13.30;;;;;;;;;;5044870;28;20569;-72
2022/07/05 00:19:35;;;;;;;21.98;14.15;;;;;;;;;;5045089;28;20036;-73
2022/07/05 00:22:01;;;;;;;23.92;14.18;;;;;;;;;;5037247;28;20025;-71
2022/07/05 00:24:27;;;;;;;17.55;13.30;;;;;;;;;;5044796;28;20107;-72
2022/07/05 00:26:53;;;;;;;23.83;14.40;;;;;;;;;;5041561;28;20033;-74
2022/07/05 00:29:19;;;;;;;23.90;13.77;;;;;;;;;;5038868;28;20402;-73
2022/07/05 00:31:45;;;;;;;24.95;15.35;;;;;;;;;;5043813;28;20483;-73
2022/07/05 00:34:11;;;;;;;21.13;15.70;;;;;;;;;;5042553;28;20025;-73
2022/07/05 00:36:38;;;;;;;19.70;15.60;;;;;;;;;;5041169;28;20037;-72
2022/07/05 00:39:04;;;;;;;29.42;16.90;;;;;;;;;;5040981;28;20439;-73
2022/07/05 00:41:30;;;;;;;19.05;15.43;;;;;;;;;;5042277;28;20028;-75
2022/07/05 00:43:59;;;;;;;24.65;14.15;;;;;;;;;;5043135;28;20033;-73
2022/07/05 00:46:26;;;;;;;21.30;14.82;;;;;;;;;;5050664;28;20049;-74
2022/07/05 00:48:52;;;;;;;24.33;14.50;;;;;;;;;;5042478;28;20074;-74
2022/07/05 00:51:18;;;;;;;19.83;14.52;;;;;;;;;;5046827;28;20028;-74
2022/07/05 00:53:44;;;;;;;20.50;14.32;;;;;;;;;;5041229;28;20037;-74
2022/07/05 00:56:11;;;;;;;21.17;13.30;;;;;;;;;;5057319;28;20037;-74
2022/07/05 00:58:37;;;;;;;25.95;14.00;;;;;;;;;;5044193;28;20447;-74
2022/07/05 01:01:05;;;;;;;16.60;12.45;;;;;;;;;;5041075;28;20102;-74
2022/07/05 01:03:31;;;;;;;20.23;12.40;;;;;;;;;;5040752;28;20024;-73
2022/07/05 01:05:57;;;;;;;21.25;12.65;;;;;;;;;;5038418;28;21314;-72
2022/07/05 01:08:24;;;;;;;22.05;13.07;;;;;;;;;;5040205;28;20029;-73
2022/07/05 01:10:50;;;;;;;15.40;12.30;;;;;;;;;;5044007;28;20056;-73
2022/07/05 01:13:16;;;;;;;16.35;12.35;;;;;;;;;;5044732;28;20131;-73
2022/07/05 01:15:42;;;;;;;15.93;11.88;;;;;;;;;;5043211;28;20724;-72
2022/07/05 01:18:09;;;;;;;21.73;12.07;;;;;;;;;;5043910;28;20037;-75
2022/07/05 01:20:36;;;;;;;15.95;11.98;;;;;;;;;;5044573;28;20025;-74
2022/07/05 01:23:02;;;;;;;18.05;13.60;;;;;;;;;;5042517;28;20434;-74
2022/07/05 01:25:30;;;;;;;19.60;13.57;;;;;;;;;;5022861;28;20029;-75
2022/07/05 01:27:56;;;;;;;22.17;13.63;;;;;;;;;;5045806;28;20164;-74
2022/07/05 01:30:23;;;;;;;22.80;13.80;;;;;;;;;;5054992;28;20029;-74
2022/07/05 01:32:49;;;;;;;23.63;13.82;;;;;;;;;;5042590;28;20090;-74
2022/07/05 01:35:24;;;;;;;20.10;14.60;;;;;;;;;;5047667;28;20483;-73
2022/07/05 01:37:51;;;;;;;25.52;14.93;;;;;;;;;;5040471;28;20056;-73
2022/07/05 01:40:17;;;;;;;23.20;15.40;;;;;;;;;;5045295;28;20059;-72
2022/07/05 01:42:43;;;;;;;22.95;15.85;;;;;;;;;;5041616;28;20024;-73
2022/07/05 01:45:10;;;;;;;21.85;15.90;;;;;;;;;;5037291;28;20033;-73
2022/07/05 01:47:36;;;;;;;26.02;15.70;;;;;;;;;;5043941;28;20045;-73
2022/07/05 01:50:04;;;;;;;25.13;16.83;;;;;;;;;;5039089;28;20037;-73
2022/07/05 01:52:32;;;;;;;23.30;16.13;;;;;;;;;;5047930;28;20025;-74
2022/07/05 01:55:00;;;;;;;24.27;17.23;;;;;;;;;;5045189;28;20152;-74
2022/07/05 01:57:27;;;;;;;23.85;15.82;;;;;;;;;;5046820;28;20040;-72
2022/07/05 01:59:53;;;;;;;24.50;17.27;;;;;;;;;;5041271;28;20029;-74
2022/07/05 02:02:19;;;;;;;26.20;17.40;;;;;;;;;;5056032;28;20150;-74
2022/07/05 02:04:45;;;;;;;23.90;16.73;;;;;;;;;;5040520;28;20049;-73
2022/07/05 02:07:11;;;;;;;23.80;16.15;;;;;;;;;;5041467;28;20533;-74
2022/07/05 02:09:37;;;;;;;25.60;17.83;;;;;;;;;;5040838;28;20453;-74
2022/07/05 02:12:04;;;;;;;30.48;19.13;;;;;;;;;;5041162;28;20021;-74
2022/07/05 02:14:30;;;;;;;24.42;18.15;;;;;;;;;;5038571;28;20329;-75
2022/07/05 02:16:56;;;;;;;25.58;18.98;;;;;;;;;;5043863;28;20540;-74
2022/07/05 02:19:22;;;;;;;26.35;17.52;;;;;;;;;;5039725;28;20047;-74
2022/07/05 02:21:48;;;;;;;23.83;17.27;;;;;;;;;;5040768;28;20037;-75
2022/07/05 02:24:14;;;;;;;28.80;18.92;;;;;;;;;;5037899;28;20573;-74
2022/07/05 02:26:41;;;;;;;31.70;18.60;;;;;;;;;;5037239;28;20502;-74
2022/07/05 02:29:07;;;;;;;21.58;17.15;;;;;;;;;;5040759;28;20147;-74
2022/07/05 02:31:33;;;;;;;26.17;17.73;;;;;;;;;;5043173;28;20041;-74
2022/07/05 02:33:59;;;;;;;25.58;17.25;;;;;;;;;;5042970;28;20070;-74
2022/07/05 02:36:25;;;;;;;29.77;17.67;;;;;;;;;;5024266;28;20037;-74
2022/07/05 02:38:51;;;;;;;29.02;19.48;;;;;;;;;;5040184;28;20029;-73
2022/07/05 02:41:17;;;;;;;30.42;20.42;;;;;;;;;;5034455;28;20017;-73
2022/07/05 02:43:43;;;;;;;27.10;20.25;;;;;;;;;;5040494;28;20029;-74
2022/07/05 02:46:10;;;;;;;33.20;21.05;;;;;;;;;;5039457;28;20032;-74
2022/07/05 02:48:36;;;;;;;33.47;22.10;;;;;;;;;;5039673;28;20084;-73
2022/07/05 02:51:03;;;;;;;31.05;22.38;;;;;;;;;;5039136;28;20499;-73
2022/07/05 02:53:29;;;;;;;36.65;22.27;;;;;;;;;;5038093;28;20061;-74
2022/07/05 02:55:55;;;;;;;34.65;22.83;;;;;;;;;;5036400;28;20052;-74
2022/07/05 02:58:21;;;;;;;29.35;20.63;;;;;;;;;;5040982;28;20037;-73
2022/07/05 03:00:48;;;;;;;26.80;19.55;;;;;;;;;;5025703;28;20033;-74
2022/07/05 03:03:14;;;;;;;26.27;18.17;;;;;;;;;;5045588;28;20026;-74
2022/07/05 03:05:40;;;;;;;26.08;16.90;;;;;;;;;;5045346;28;20090;-74
2022/07/05 03:08:06;;;;;;;31.08;19.02;;;;;;;;;;5044774;28;20094;-74
2022/07/05 03:10:33;;;;;;;32.70;20.98;;;;;;;;;;5038781;28;20053;-75
2022/07/05 03:12:59;;;;;;;36.85;22.98;;;;;;;;;;5045483;28;20033;-75
2022/07/05 03:15:25;;;;;;;38.35;24.58;;;;;;;;;;5044389;28;20422;-74
2022/07/05 03:17:51;;;;;;;46.10;26.50;;;;;;;;;;5045651;28;20035;-74
2022/07/05 03:20:18;;;;;;;40.63;25.38;;;;;;;;;;5047524;28;20639;-73
2022/07/05 03:22:44;;;;;;;45.38;27.65;;;;;;;;;;5047419;28;20021;-73
2022/07/05 03:25:10;;;;;;;43.25;25.85;;;;;;;;;;5046757;28;21367;-74
2022/07/05 03:27:36;;;;;;;50.00;29.33;;;;;;;;;;5040235;28;20087;-74
2022/07/05 03:30:04;;;;;;;46.75;28.45;;;;;;;;;;5046791;28;20507;-74
2022/07/05 03:32:30;;;;;;;49.75;30.83;;;;;;;;;;5061871;28;20031;-74
2022/07/05 03:34:56;;;;;;;54.47;32.97;;;;;;;;;;5046796;28;20063;-74
2022/07/05 03:37:22;;;;;;;49.25;32.20;;;;;;;;;;5041714;28;20118;-74
2022/07/05 03:39:48;;;;;;;56.55;31.63;;;;;;;;;;5044352;28;20037;-73
2022/07/05 03:42:14;;;;;;;44.65;30.75;;;;;;;;;;5046475;28;20116;-73
2022/07/05 03:44:40;;;;;;;49.92;30.65;;;;;;;;;;5040481;28;20025;-72
2022/07/05 03:47:06;;;;;;;56.38;32.30;;;;;;;;;;5036316;28;20536;-69
2022/07/05 03:49:32;;;;;;;47.40;31.23;;;;;;;;;;5041376;28;20036;-70
2022/07/05 03:51:58;;;;;;;49.85;28.92;;;;;;;;;;5042347;28;20091;-70
2022/07/05 03:54:24;;;;;;;54.92;31.83;;;;;;;;;;5042347;28;20437;-69
2022/07/05 03:56:50;;;;;;;52.58;32.83;;;;;;;;;;5040213;28;20083;-70
2022/07/05 03:59:16;;;;;;;51.90;33.90;;;;;;;;;;5042308;28;20037;-70
2022/07/05 04:01:42;;;;;;;45.22;30.30;;;;;;;;;;5043090;28;20057;-71
2022/07/05 04:04:09;;;;;;;48.78;32.97;;;;;;;;;;5044372;28;20068;-70
2022/07/05 04:06:35;;;;;;;43.53;29.58;;;;;;;;;;5044945;28;20025;-70
2022/07/05 04:09:01;;;;;;;45.10;30.20;;;;;;;;;;5043157;28;20056;-69
2022/07/05 04:11:27;;;;;;;42.03;29.98;;;;;;;;;;5042760;28;21227;-70
2022/07/05 04:13:53;;;;;;;44.88;30.40;;;;;;;;;;5044207;28;20267;-69
2022/07/05 04:16:19;;;;;;;44.65;29.88;;;;;;;;;;5044352;28;20075;-70
2022/07/05 04:18:45;;;;;;;40.03;27.63;;;;;;;;;;5038582;28;20116;-70
2022/07/05 04:21:11;;;;;;;42.28;27.15;;;;;;;;;;5041831;28;20100;-69
2022/07/05 04:23:37;;;;;;;41.88;27.00;;;;;;;;;;5040761;28;20032;-69
2022/07/05 04:26:03;;;;;;;35.40;24.70;;;;;;;;;;5043750;28;20375;-69
2022/07/05 04:28:32;;;;;;;33.78;24.88;;;;;;;;;;5041099;28;20025;-69
2022/07/05 04:30:58;;;;;;;34.83;24.33;;;;;;;;;;5043501;28;20226;-70
2022/07/05 04:33:25;;;;;;;40.63;24.58;;;;;;;;;;5038838;28;20494;-69
2022/07/05 04:35:51;;;;;;;35.72;23.98;;;;;;;;;;5043783;28;20452;-70
2022/07/05 04:38:17;;;;;;;32.20;23.55;;;;;;;;;;5039452;28;20070;-69
2022/07/05 04:40:43;;;;;;;31.08;22.52;;;;;;;;;;5038794;28;20033;-69
2022/07/05 04:43:09;;;;;;;34.78;24.52;;;;;;;;;;5037624;28;20036;-70
2022/07/05 04:45:35;;;;;;;31.05;22.20;;;;;;;;;;5044114;28;20371;-70
2022/07/05 04:48:01;;;;;;;31.27;22.67;;;;;;;;;;5038426;28;20050;-71
2022/07/05 04:50:27;;;;;;;35.40;24.00;;;;;;;;;;5044673;28;20033;-70
2022/07/05 04:52:53;;;;;;;31.33;22.35;;;;;;;;;;5042975;28;20449;-70
2022/07/05 04:55:19;;;;;;;30.35;21.88;;;;;;;;;;5040617;28;20040;-70
2022/07/05 04:57:45;;;;;;;26.15;21.27;;;;;;;;;;5043251;28;20090;-70
2022/07/05 05:00:13;;;;;;;34.17;23.25;;;;;;;;;;5041608;28;20033;-71
2022/07/05 05:02:39;;;;;;;28.05;21.17;;;;;;;;;;5042943;28;20147;-69
2022/07/05 05:05:05;;;;;;;30.88;20.17;;;;;;;;;;5035538;28;20029;-74
2022/07/05 05:07:32;;;;;;;26.98;20.00;;;;;;;;;;5040540;28;20039;-74
2022/07/05 05:09:58;;;;;;;34.92;20.23;;;;;;;;;;5041457;28;20082;-74
2022/07/05 05:12:24;;;;;;;23.85;19.23;;;;;;;;;;5041616;28;20041;-74
2022/07/05 05:14:51;;;;;;;22.92;17.00;;;;;;;;;;5037357;28;20036;-75
2022/07/05 05:17:17;;;;;;;24.25;17.05;;;;;;;;;;5034930;28;20055;-74
2022/07/05 05:19:44;;;;;;;19.70;16.30;;;;;;;;;;5040563;28;20044;-75
2022/07/05 05:22:10;;;;;;;22.85;17.83;;;;;;;;;;5042482;28;20025;-74
2022/07/05 05:24:36;;;;;;;22.85;16.63;;;;;;;;;;5041912;28;20025;-76
2022/07/05 05:27:02;;;;;;;20.88;15.70;;;;;;;;;;5041919;28;20403;-76
2022/07/05 05:29:28;;;;;;;20.00;14.57;;;;;;;;;;5034964;28;20045;-75
2022/07/05 05:31:54;;;;;;;21.83;13.48;;;;;;;;;;5040860;28;20033;-76
2022/07/05 05:34:20;;;;;;;23.88;13.27;;;;;;;;;;5045275;28;20411;-76
2022/07/05 05:36:46;;;;;;;19.55;14.30;;;;;;;;;;5043802;28;20021;-76
2022/07/05 05:39:14;;;;;;;20.77;13.32;;;;;;;;;;5041866;28;20033;-76
2022/07/05 05:41:41;;;;;;;17.45;13.05;;;;;;;;;;5039815;28;20188;-75
2022/07/05 05:44:07;;;;;;;18.17;12.55;;;;;;;;;;5033236;28;20582;-75
2022/07/05 05:46:33;;;;;;;17.30;13.70;;;;;;;;;;5042069;28;20061;-76
2022/07/05 05:48:59;;;;;;;12.88;11.43;;;;;;;;;;5043589;28;20504;-76
2022/07/05 05:51:25;;;;;;;14.25;9.15;;;;;;;;;;5044363;28;20044;-76
2022/07/05 05:53:51;;;;;;;11.45;7.00;;;;;;;;;;5039868;28;20767;-74
2022/07/05 05:56:17;;;;;;;12.15;8.32;;;;;;;;;;5041820;28;20075;-76
2022/07/05 05:58:43;;;;;;;16.58;8.88;;;;;;;;;;5042441;28;20049;-75
2022/07/05 06:01:09;;;;;;;11.23;9.05;;;;;;;;;;5043261;28;20111;-74
2022/07/05 06:03:35;;;;;;;13.80;8.18;;;;;;;;;;5036774;28;20241;-74
2022/07/05 06:06:01;;;;;;;10.63;8.18;;;;;;;;;;5043925;28;20471;-75
2022/07/05 06:08:27;;;;;;;12.20;7.57;;;;;;;;;;5047002;28;20367;-74
2022/07/05 06:10:53;;;;;;;12.50;8.18;;;;;;;;;;5042161;28;20478;-76
2022/07/05 06:13:19;;;;;;;10.65;6.45;;;;;;;;;;5035478;28;20387;-76
2022/07/05 06:15:45;;;;;;;11.07;5.97;;;;;;;;;;5044919;28;20053;-76
2022/07/05 06:18:12;;;;;;;7.50;5.70;;;;;;;;;;5035601;28;20116;-75
2022/07/05 06:20:39;;;;;;;9.55;5.55;;;;;;;;;;5043168;28;20036;-76
2022/07/05 06:23:05;;;;;;;8.48;6.28;;;;;;;;;;5041331;28;20029;-75
2022/07/05 06:25:32;;;;;;;9.93;6.78;;;;;;;;;;5040820;28;20402;-75
2022/07/05 06:28:00;;;;;;;8.98;5.45;;;;;;;;;;5037249;28;20029;-75
2022/07/05 06:30:28;;;;;;;7.72;4.95;;;;;;;;;;5036784;28;20056;-75
2022/07/05 06:32:54;;;;;;;10.38;7.20;;;;;;;;;;5039696;28;20029;-76
2022/07/05 06:35:21;;;;;;;9.43;6.82;;;;;;;;;;5032533;28;20040;-74
2022/07/05 06:37:48;;;;;;;8.93;6.43;;;;;;;;;;5036386;28;20494;-75
2022/07/05 06:40:17;;;;;;;11.13;7.18;;;;;;;;;;5051003;28;20040;-75
2022/07/05 06:42:43;;;;;;;9.27;5.40;;;;;;;;;;5053935;28;20044;-75
2022/07/05 06:45:09;;;;;;;9.10;5.88;;;;;;;;;;5054028;28;20425;-76
2022/07/05 06:47:36;;;;;;;11.15;6.82;;;;;;;;;;5050286;28;20031;-75
2022/07/05 06:50:03;;;;;;;11.88;7.25;;;;;;;;;;5052859;28;20398;-76
2022/07/05 06:52:30;;;;;;;12.23;6.60;;;;;;;;;;5054818;28;20029;-74
2022/07/05 06:54:56;;;;;;;9.57;6.55;;;;;;;;;;5054064;28;20009;-76
2022/07/05 06:57:22;;;;;;;11.35;6.70;;;;;;;;;;5048543;28;20041;-76
2022/07/05 06:59:49;;;;;;;12.63;7.50;;;;;;;;;;5050425;28;20086;-76
2022/07/05 07:02:15;;;;;;;10.55;6.10;;;;;;;;;;5058233;28;20031;-76
2022/07/05 07:04:41;;;;;;;10.63;5.65;;;;;;;;;;5052512;28;20048;-76
2022/07/05 07:09:17;;;;;;;9.15;4.95;;;;;;;;;;5023467;28;20069;-74
2022/07/05 07:09:56;;;;;;;9.95;4.75;;;;;;;;;;5041614;28;20532;-76
2022/07/05 07:12:22;;;;;;;9.05;5.65;;;;;;;;;;5040872;28;20032;-75
2022/07/05 07:14:48;;;;;;;6.85;4.82;;;;;;;;;;5038644;28;20037;-74
2022/07/05 07:17:14;;;;;;;7.32;4.15;;;;;;;;;;5032615;28;20041;-76
2022/07/05 07:19:40;;;;;;;6.97;3.88;;;;;;;;;;5039541;28;20386;-76
2022/07/05 07:22:06;;;;;;;7.82;3.88;;;;;;;;;;5051327;28;20037;-75
2022/07/05 07:24:32;;;;;;;9.18;4.45;;;;;;;;;;5047558;28;20071;-73
2022/07/05 07:27:04;;;;;;;9.07;5.32;;;;;;;;;;5041523;28;20040;-73
2022/07/05 07:29:34;;;;;;;8.52;3.60;;;;;;;;;;5052104;28;20025;-76
2022/07/05 07:32:00;;;;;;;5.28;3.83;;;;;;;;;;5049747;28;20029;-75
2022/07/05 07:34:27;;;;;;;12.43;4.40;;;;;;;;;;5045423;28;20036;-76
2022/07/05 07:36:54;;;;;;;7.60;3.90;;;;;;;;;;5034374;28;20032;-74
2022/07/05 07:39:20;;;;;;;4.05;1.80;;;;;;;;;;5049696;28;20231;-76
2022/07/05 07:41:46;;;;;;;8.77;2.45;;;;;;;;;;5050407;28;20033;-75
2022/07/05 07:44:12;;;;;;;4.72;1.85;;;;;;;;;;5049185;28;20107;-75
2022/07/05 07:46:41;;;;;;;9.25;1.80;;;;;;;;;;5048650;28;20044;-75
2022/07/05 07:49:11;;;;;;;3.40;1.63;;;;;;;;;;5042495;28;20037;-75
2022/07/05 07:51:37;;;;;;;5.93;2.00;;;;;;;;;;5042254;28;21879;-75
2022/07/05 07:54:03;;;;;;;5.28;1.77;;;;;;;;;;5044079;28;20115;-76
2022/07/05 07:56:30;;;;;;;7.25;1.42;;;;;;;;;;5038334;28;20108;-75
2022/07/05 07:58:56;;;;;;;8.50;1.60;;;;;;;;;;5045299;28;20064;-75
2022/07/05 08:01:22;;;;;;;7.00;1.50;;;;;;;;;;5039958;28;20029;-74
2022/07/05 08:03:48;;;;;;;7.40;1.80;;;;;;;;;;5038794;28;20037;-75
2022/07/05 08:06:15;;;;;;;5.07;1.92;;;;;;;;;;5043573;28;20110;-77
2022/07/05 08:08:43;;;;;;;6.82;1.83;;;;;;;;;;5036616;28;20045;-74
2022/07/05 08:11:09;;;;;;;4.90;1.75;;;;;;;;;;5042216;28;20025;-76
2022/07/05 08:13:35;;;;;;;10.00;1.98;;;;;;;;;;5041767;28;20490;-75
2022/07/05 08:16:01;;;;;;;4.13;1.48;;;;;;;;;;5042917;28;20039;-76
2022/07/05 08:21:31;;;;;;;7.70;1.40;;;;;;;;;;5048137;28;20052;-76
2022/07/05 08:23:57;;;;;;;5.68;1.65;;;;;;;;;;5041357;28;20491;-76
2022/07/05 08:26:23;;;;;;;5.75;1.35;;;;;;;;;;5043982;28;20032;-75
2022/07/05 08:28:49;;;;;;;4.13;1.65;;;;;;;;;;5046701;28;20451;-79
2022/07/05 08:31:15;;;;;;;7.15;1.35;;;;;;;;;;5042010;28;20029;-77
2022/07/05 08:33:41;;;;;;;5.70;1.20;;;;;;;;;;5043066;28;20040;-76
2022/07/05 08:36:07;;;;;;;6.70;1.38;;;;;;;;;;5044188;28;20052;-76
2022/07/05 08:38:33;;;;;;;3.70;1.30;;;;;;;;;;5046626;28;20113;-76
2022/07/05 08:41:00;;;;;;;8.52;1.58;;;;;;;;;;5041740;28;20021;-77
2022/07/05 08:43:27;;;;;;;2.30;1.13;;;;;;;;;;5040049;28;20549;-75
2022/07/05 08:45:57;;;;;;;5.80;1.50;;;;;;;;;;5050464;28;20028;-77
2022/07/05 08:48:23;;;;;;;;;;;;;;;;;;5035972;28;20074;-75
2022/07/05 08:50:51;;;;;;;5.13;1.60;;;;;;;;;;5045775;28;19912;-75
2022/07/05 08:53:21;;;;;;;6.32;1.85;;;;;;;;;;5035186;28;20503;-75
2022/07/05 08:55:48;;;;;;;6.55;1.33;;;;;;;;;;5049557;28;20033;-74
2022/07/05 08:58:14;;;;;;;7.82;1.35;;;;;;;;;;5046095;28;20036;-75
2022/07/05 09:00:40;;;;;;;4.55;1.30;;;;;;;;;;5030909;28;20423;-77
2022/07/05 09:03:07;;;;;;;5.93;1.63;;;;;;;;;;5044544;28;20068;-76
2022/07/05 09:05:36;;;;;;;6.72;1.60;;;;;;;;;;5047450;28;20037;-76
2022/07/05 09:08:03;;;;;;;6.47;1.55;;;;;;;;;;5043490;28;20029;-76
2022/07/05 09:10:30;;;;;;;11.05;2.00;;;;;;;;;;5045373;28;20534;-76
2022/07/05 09:12:57;;;;;;;6.53;1.23;;;;;;;;;;5050253;28;20033;-75
2022/07/05 09:15:23;;;;;;;4.30;1.40;;;;;;;;;;5050071;28;20028;-75
2022/07/05 09:17:50;;;;;;;3.20;1.20;;;;;;;;;;5047538;28;20094;-74
2022/07/05 09:20:17;;;;;;;2.22;0.98;;;;;;;;;;5044907;28;20060;-76
2022/07/05 09:22:53;;;;;;;5.60;1.33;;;;;;;;;;5051009;28;20116;-75
2022/07/05 09:25:20;;;;;;;4.72;1.20;;;;;;;;;;5047875;28;20096;-74
2022/07/05 09:27:50;;;;;;;6.68;1.50;;;;;;;;;;5049391;28;20462;-75
2022/07/05 09:30:32;;;;;;;8.23;1.50;;;;;;;;;;5046958;28;20033;-75
2022/07/05 09:33:05;;;;;;;7.38;1.45;;;;;;;;;;5046674;28;20033;-77
2022/07/05 09:35:32;;;;;;;8.25;1.90;;;;;;;;;;5045906;28;20037;-77
2022/07/05 09:37:58;;;;;;;7.57;1.25;;;;;;;;;;5034974;28;20116;-76
2022/07/05 09:40:24;;;;;;;3.67;1.30;;;;;;;;;;5044479;28;20025;-75
2022/07/05 09:42:50;;;;;;;3.55;1.27;;;;;;;;;;5044446;28;20044;-75
2022/07/05 09:45:23;;;;;;;3.15;1.13;;;;;;;;;;5029224;28;20029;-70
2022/07/05 09:47:49;;;;;;;3.65;1.13;;;;;;;;;;5042979;28;20049;-70
2022/07/05 09:50:33;;;;;;;4.70;1.20;;;;;;;;;;5046434;28;20041;-69
2022/07/05 09:52:59;;;;;;;9.35;1.48;;;;;;;;;;5045835;28;20037;-69
2022/07/05 09:55:25;;;;;;;8.98;1.10;;;;;;;;;;5063577;28;20032;-70
2022/07/05 09:57:52;;;;;;;12.15;1.85;;;;;;;;;;5040530;28;20048;-70
2022/07/05 10:00:20;;;;;;;23.55;2.80;;;;;;;;;;5047308;28;20163;-69
2022/07/05 10:02:47;;;;;;;7.85;1.50;;;;;;;;;;5046232;28;20025;-70
2022/07/05 10:05:23;;;;;;;6.32;1.00;;;;;;;;;;5048728;28;20142;-70
2022/07/05 10:07:50;;;;;;;20.38;2.70;;;;;;;;;;5043841;28;20055;-70
2022/07/05 10:10:18;;;;;;;6.05;1.20;;;;;;;;;;5052217;28;20037;-70
2022/07/05 10:12:44;;;;;;;5.72;1.27;;;;;;;;;;5053417;28;20032;-70
2022/07/05 10:15:12;;;;;;;6.03;1.63;;;;;;;;;;5047418;28;20099;-71
2022/07/05 10:17:40;;;;;;;5.25;1.38;;;;;;;;;;5045417;28;20032;-71
2022/07/05 10:20:11;;;;;;;7.72;1.67;;;;;;;;;;5040434;28;20056;-72
2022/07/05 10:22:37;;;;;;;6.90;1.27;;;;;;;;;;5040307;28;20013;-70
2022/07/05 10:25:03;;;;;;;4.78;1.52;;;;;;;;;;5046103;28;20109;-70
2022/07/05 10:27:30;;;;;;;4.28;1.45;;;;;;;;;;5045950;28;20029;-70
2022/07/05 10:29:57;;;;;;;10.32;1.52;;;;;;;;;;5042696;28;20367;-70
2022/07/05 10:32:24;;;;;;;3.95;1.30;;;;;;;;;;5046299;28;20053;-71
2022/07/05 10:34:52;;;;;;;5.28;1.10;;;;;;;;;;5047536;28;20029;-71
2022/07/05 10:37:18;;;;;;;10.10;1.55;;;;;;;;;;5045437;28;20036;-70
2022/07/05 10:39:44;;;;;;;3.90;1.50;;;;;;;;;;5060590;28;20033;-70
2022/07/05 10:42:11;;;;;;;4.30;1.42;;;;;;;;;;5037951;28;20768;-71
2022/07/05 10:44:38;;;;;;;4.07;1.13;;;;;;;;;;5041509;28;20032;-69
2022/07/05 10:47:11;;;;;;;7.30;1.83;;;;;;;;;;5040082;28;20045;-69
2022/07/05 10:49:37;;;;;;;4.80;1.17;;;;;;;;;;5044947;28;20029;-70
2022/07/05 10:52:04;;;;;;;4.47;1.30;;;;;;;;;;5040885;28;20136;-69
2022/07/05 10:54:31;;;;;;;7.32;1.95;;;;;;;;;;5035880;28;20446;-68
2022/07/05 10:57:16;;;;;;;4.35;1.65;;;;;;;;;;5043838;28;20025;-69
2022/07/05 11:00:00;;;;;;;4.95;1.50;;;;;;;;;;5041810;28;20117;-68
2022/07/05 11:02:26;;;;;;;6.05;1.92;;;;;;;;;;5041038;28;20505;-69
2022/07/05 11:04:56;;;;;;;8.15;1.60;;;;;;;;;;5043949;28;20045;-69
2022/07/05 11:07:41;;;;;;;6.68;1.35;;;;;;;;;;5046018;28;20021;-69
2022/07/05 11:10:07;;;;;;;4.45;1.20;;;;;;;;;;5041317;28;20473;-68
2022/07/05 11:12:37;;;;;;;5.28;1.40;;;;;;;;;;5041438;28;20028;-68
2022/07/05 11:15:08;;;;;;;6.63;1.50;;;;;;;;;;5043539;28;20037;-69
2022/07/05 11:17:36;;;;;;;9.13;1.77;;;;;;;;;;5043044;28;20474;-69
2022/07/05 11:20:05;;;;;;;7.55;1.42;;;;;;;;;;5046923;28;20040;-69
2022/07/05 11:22:31;;;;;;;4.72;1.30;;;;;;;;;;5045044;28;20021;-69
2022/07/05 11:24:58;;;;;;;4.97;1.13;;;;;;;;;;5049486;28;20029;-69
2022/07/05 11:27:24;;;;;;;5.85;1.90;;;;;;;;;;5044016;28;20040;-70
2022/07/05 11:29:50;;;;;;;4.88;1.27;;;;;;;;;;5041364;28;20111;-69
2022/07/05 11:32:20;;;;;;;5.13;1.30;;;;;;;;;;5043966;28;20199;-70
2022/07/05 11:34:47;;;;;;;3.00;1.08;;;;;;;;;;5041898;28;20037;-68
2022/07/05 11:37:24;;;;;;;6.88;1.40;;;;;;;;;;5045397;28;20048;-70
2022/07/05 11:40:11;;;;;;;4.72;1.20;;;;;;;;;;5044043;28;20033;-73
2022/07/05 11:42:45;;;;;;;5.80;1.40;;;;;;;;;;5046780;28;20136;-65
2022/07/05 11:45:12;;;;;;;7.78;1.95;;;;;;;;;;5043085;28;20029;-69
2022/07/05 11:47:38;;;;;;;7.20;1.60;;;;;;;;;;5033594;28;20073;-69
2022/07/05 11:50:04;;;;;;;4.60;0.80;;;;;;;;;;5042134;28;20331;-69
2022/07/05 11:52:32;;;;;;;3.90;1.02;;;;;;;;;;5047100;28;20520;-70
2022/07/05 11:54:58;;;;;;;3.28;1.15;;;;;;;;;;5047434;28;20053;-70
2022/07/05 11:57:24;;;;;;;2.55;0.80;;;;;;;;;;5045291;28;20035;-69
2022/07/05 11:59:50;;;;;;;6.28;1.00;;;;;;;;;;5045387;28;20064;-69
2022/07/05 12:02:17;;;;;;;4.97;1.05;;;;;;;;;;5042066;28;20422;-69
2022/07/05 12:04:49;;;;;;;3.53;0.90;;;;;;;;;;5049864;28;20163;-68
2022/07/05 12:07:28;;;;;;;3.35;0.88;;;;;;;;;;5047186;28;20072;-69
2022/07/05 12:12:45;;;;;;;6.15;1.45;;;;;;;;;;5042387;28;20075;-68
2022/07/05 12:15:12;;;;;;;2.80;0.80;;;;;;;;;;5042995;28;20033;-68
2022/07/05 12:17:39;;;;;;;2.63;0.55;;;;;;;;;;5046320;28;20075;-69
2022/07/05 12:20:05;;;;;;;5.43;1.00;;;;;;;;;;5044407;28;20504;-70
2022/07/05 12:22:32;;;;;;;1.58;0.73;;;;;;;;;;5046901;28;20035;-69
2022/07/05 12:24:59;;;;;;;4.78;1.40;;;;;;;;;;5048921;28;20033;-70
2022/07/05 12:27:28;;;;;;;3.53;0.70;;;;;;;;;;5040515;28;20459;-70
2022/07/05 12:29:55;;;;;;;2.13;0.80;;;;;;;;;;5042576;28;20033;-69
2022/07/05 12:32:21;;;;;;;3.60;0.65;;;;;;;;;;5040593;28;20033;-69
2022/07/05 12:34:47;;;;;;;6.55;1.13;;;;;;;;;;5048644;28;20044;-70
2022/07/05 12:37:26;;;;;;;3.80;0.90;;;;;;;;;;5045134;28;20093;-70
2022/07/05 12:40:03;;;;;;;2.67;0.63;;;;;;;;;;5039964;28;20040;-69
2022/07/05 12:42:33;;;;;;;4.65;0.80;;;;;;;;;;5046958;28;20083;-73
2022/07/05 12:45:15;;;;;;;1.63;0.70;;;;;;;;;;5045073;28;20108;-72
2022/07/05 12:47:54;;;;;;;2.65;0.70;;;;;;;;;;5046580;28;20049;-71
2022/07/05 12:50:21;;;;;;;2.97;0.70;;;;;;;;;;5045262;28;20495;-71
2022/07/05 12:58:30;;;;;;;5.80;0.90;;;;;;;;;;5034775;28;20047;-70
2022/07/05 13:00:56;;;;;;;2.05;1.00;;;;;;;;;;5043149;28;20124;-70
2022/07/05 13:03:22;;;;;;;2.92;0.77;;;;;;;;;;5034619;28;20101;-70
2022/07/05 13:06:01;;;;;;;6.22;1.25;;;;;;;;;;5035981;28;20080;-71
2022/07/05 13:08:28;;;;;;;4.10;0.98;;;;;;;;;;5038222;28;20089;-70
2022/07/05 13:10:54;;;;;;;3.25;0.93;;;;;;;;;;5039589;28;20124;-71
2022/07/05 13:13:20;;;;;;;2.88;0.70;;;;;;;;;;5044366;28;20051;-69
2022/07/05 13:15:46;;;;;;;5.30;0.85;;;;;;;;;;5046504;28;20450;-69
2022/07/05 13:18:12;;;;;;;4.45;1.00;;;;;;;;;;5040130;28;20037;-70
2022/07/05 13:20:38;;;;;;;3.80;0.68;;;;;;;;;;5063410;28;20035;-69
2022/07/05 13:23:04;;;;;;;4.35;0.82;;;;;;;;;;5034458;28;20349;-69
2022/07/05 13:25:30;;;;;;;5.63;0.88;;;;;;;;;;5015283;28;20029;-68
2022/07/05 13:27:56;;;;;;;2.92;0.77;;;;;;;;;;5043897;28;20514;-69
2022/07/05 13:30:22;;;;;;;4.53;1.00;;;;;;;;;;5043178;28;20033;-71
2022/07/05 13:32:48;;;;;;;3.72;1.45;;;;;;;;;;5044704;28;20405;-71
2022/07/05 13:35:14;;;;;;;3.20;0.93;;;;;;;;;;5043426;28;20120;-69
2022/07/05 13:37:40;;;;;;;3.47;1.15;;;;;;;;;;5043677;28;20398;-69
2022/07/05 13:40:06;;;;;;;3.90;1.00;;;;;;;;;;5040131;28;20044;-70
2022/07/05 13:42:32;;;;;;;5.18;0.98;;;;;;;;;;5049362;28;20036;-70
2022/07/05 13:44:58;;;;;;;4.88;0.98;;;;;;;;;;5047684;28;20124;-68
2022/07/05 13:47:24;;;;;;;6.75;1.10;;;;;;;;;;5046688;28;20498;-71
2022/07/05 13:50:31;;;;;;;4.18;0.82;;;;;;;;;;5044769;28;20143;-71
2022/07/05 13:52:36;;;;;;;4.40;0.90;;;;;;;;;;5048728;28;20592;-69
2022/07/05 13:55:02;;;;;;;3.00;0.85;;;;;;;;;;5045073;28;20123;-69
2022/07/05 13:57:31;;;;;;;2.50;0.95;;;;;;;;;;5043761;28;20124;-69
2022/07/05 13:59:57;;;;;;;3.53;1.10;;;;;;;;;;5035088;28;20030;-69
2022/07/05 14:02:23;;;;;;;4.25;1.25;;;;;;;;;;5032413;28;20037;-71
2022/07/05 14:04:49;;;;;;;4.47;1.08;;;;;;;;;;5032216;28;20036;-70
2022/07/05 14:07:16;;;;;;;4.38;1.20;;;;;;;;;;5035089;28;20025;-70
2022/07/05 14:09:42;;;;;;;3.95;1.42;;;;;;;;;;5031437;28;20030;-70
2022/07/05 14:12:08;;;;;;;8.93;1.08;;;;;;;;;;5040789;28;20036;-70
2022/07/05 14:14:34;;;;;;;4.95;1.13;;;;;;;;;;5039393;28;20040;-68
2022/07/05 14:17:00;;;;;;;4.20;1.10;;;;;;;;;;5046940;28;20026;-70
2022/07/05 14:19:27;;;;;;;10.57;1.63;;;;;;;;;;5038738;28;20122;-70
2022/07/05 14:21:53;;;;;;;6.45;1.15;;;;;;;;;;5039315;28;20057;-69
2022/07/05 14:24:19;;;;;;;2.80;1.10;;;;;;;;;;5036338;28;20041;-70
2022/07/05 14:26:45;;;;;;;6.85;1.20;;;;;;;;;;5044307;28;20405;-70
2022/07/05 14:29:11;;;;;;;11.23;1.08;;;;;;;;;;5041691;28;20065;-70
2022/07/05 14:31:37;;;;;;;5.88;1.00;;;;;;;;;;5037362;28;20025;-70
2022/07/05 14:34:02;;;;;;;4.43;1.02;;;;;;;;;;5040250;28;20491;-69
2022/07/05 14:36:29;;;;;;;2.33;0.90;;;;;;;;;;5040071;28;20033;-70
2022/07/05 14:38:55;;;;;;;4.38;1.00;;;;;;;;;;5031390;28;20056;-70
2022/07/05 14:41:21;;;;;;;4.20;1.10;;;;;;;;;;5037151;28;20108;-70